EFKE

Details ICAO EFKE (KEM)
Name Kemi Tornio
Region Finland
Timezone Europe/Helsinki (UTC+2.0)
Plans Departing 9
Arriving 5
Stats Elevation 61 ft / 19 m (AMSL)
Location 65.781889° 24.582436°
Runways 1
Magnetic Variation 10.597° E
Sunrise 2017-12-11 08:35:53 UTC / 2017-12-11 10:35:53 Local
Sunset 2017-12-11 11:56:49 UTC / 2017-12-11 13:56:49 Local
Advertisement - Login to hide

Runways

ID Width Length Bearing (true) Bearing (mag) Surface Threshold Offset Overrun Length
18 157 ft / 48 m 8,192 ft / 2,497 m 187.51° 176.91° Asphalt 0 ft / 0 m 95 ft / 29 m
36 157 ft / 48 m 8,192 ft / 2,497 m 7.50° 356.90° Asphalt 0 ft / 0 m 190 ft / 58 m

Approach Navaids

Runway Type Ident Frequency Range Bearing (true) Bearing (mag) Slope Elevation
18 Localiser KE 110.90 MHz 18 nm / 33 km 187.51° 176.91° - 61 ft / 19 m (AMSL)
18 Glidescope KE 110.90 MHz 10 nm / 19 km 187.51° 176.91° 3.50° 61 ft / 19 m (AMSL)
18 DME KE 110.90 MHz 18 nm / 33 km - - - 92 ft / 28 m (AMSL)

Map

Weather


0- 5 10 15 20 25 30 35+ Temperature / ° C

Clouds and Precipitation
Forecast for 2017-12-12 00:00 UTC. Updated 25 minutes ago

Ground ~20,000 ft ~40,000 ft Winds

METAR

EFKE 111920Z 14006KT 9999 -SHSN OVC008 M01/M02 Q1004

TAF

Not found

Frequencies

Recorded 123.15 MHz ATIS
Tower 119.40 MHz TWR
Tower 119.70 MHz TWR
Warning: Do not use this data for real-world aviation or navigation. No guarantee of current accuracy is given.